Time;durP1;ratioP1;P1;durP2;ratioP2;P2;SDS_P1;SDS_P2;PMS_P1;PMS_P2;Temp;Humidity;BMP_temperature;BMP_pressure;BME280_temperature;BME280_humidity;BME280_pressure;Samples;Min_cycle;Max_cycle;Signal;HPM_P1;HPM_P2
2023/08/20 00:00:23;;;;;;;1122.00;999.90;;;;;;;21.83;87.45;100358.06;5036397;28;20120;-75
2023/08/20 00:02:55;;;;;;;1090.95;993.15;;;;;;;21.84;87.20;100359.72;5035264;28;20040;-75
2023/08/20 00:05:21;;;;;;;1141.53;999.90;;;;;;;21.85;87.40;100362.16;5035752;28;20074;-74
2023/08/20 00:07:46;;;;;;;1151.53;999.90;;;;;;;21.87;87.48;100354.31;5036096;28;20033;-75
2023/08/20 00:10:11;;;;;;;1108.17;999.90;;;;;;;21.90;87.65;100353.69;5037555;28;20030;-75
2023/08/20 00:12:37;;;;;;;1126.27;999.90;;;;;;;21.92;87.75;100361.69;5036821;28;20307;-75
2023/08/20 00:15:06;;;;;;;1132.65;999.90;;;;;;;21.95;87.62;100366.56;5035864;28;20266;-75
2023/08/20 00:17:37;;;;;;;1117.85;999.90;;;;;;;21.95;87.71;100361.00;5017411;28;20079;-75
2023/08/20 00:20:10;;;;;;;1104.20;999.08;;;;;;;21.95;87.77;100365.75;5036117;28;20041;-75
2023/08/20 00:22:36;;;;;;;1116.55;999.90;;;;;;;21.93;87.94;100358.56;5036570;28;20059;-76
2023/08/20 00:25:03;;;;;;;1136.20;999.90;;;;;;;21.91;87.76;100363.63;5036315;28;20033;-75
2023/08/20 00:27:29;;;;;;;1128.97;999.90;;;;;;;21.90;88.07;100364.78;5035457;28;20059;-75
2023/08/20 00:29:54;;;;;;;1116.13;999.90;;;;;;;21.91;87.83;100377.50;5036839;28;20021;-74
2023/08/20 00:32:19;;;;;;;1113.75;998.58;;;;;;;21.93;87.70;100368.84;5036122;28;20270;-75
2023/08/20 00:34:45;;;;;;;1109.68;999.90;;;;;;;21.93;88.12;100360.53;5035426;28;20048;-75
2023/08/20 00:37:10;;;;;;;1124.15;999.90;;;;;;;21.95;87.71;100363.78;5034843;28;20040;-76
2023/08/20 00:39:35;;;;;;;1117.47;999.90;;;;;;;21.94;87.55;100364.94;5036249;28;20040;-75
2023/08/20 00:42:00;;;;;;;1103.30;997.90;;;;;;;21.92;87.18;100365.28;5035281;28;20597;-75
2023/08/20 00:44:26;;;;;;;1078.20;982.20;;;;;;;21.92;87.46;100368.06;5035654;28;20258;-75
2023/08/20 00:46:51;;;;;;;1083.25;984.45;;;;;;;21.95;87.03;100369.34;5035357;28;20262;-75
2023/08/20 00:49:17;;;;;;;1132.45;999.90;;;;;;;21.91;86.92;100362.81;5036122;28;20080;-75
2023/08/20 00:51:44;;;;;;;1128.55;999.90;;;;;;;21.89;86.97;100359.53;5035441;28;20045;-75
2023/08/20 00:54:10;;;;;;;1107.53;999.90;;;;;;;21.88;87.28;100366.25;5034608;28;20032;-76
2023/08/20 00:56:35;;;;;;;1128.72;999.90;;;;;;;21.92;87.25;100362.50;5036128;28;20041;-75
2023/08/20 00:59:00;;;;;;;1085.03;988.28;;;;;;;21.92;87.06;100351.41;5035414;28;20029;-75
2023/08/20 01:01:26;;;;;;;1071.43;977.08;;;;;;;21.86;87.26;100349.13;5036867;28;20497;-77
2023/08/20 01:03:52;;;;;;;1116.68;999.90;;;;;;;21.81;87.65;100341.72;5037206;28;20041;-78
2023/08/20 01:06:43;;;;;;;1109.40;999.90;;;;;;;21.80;87.58;100337.34;5038763;28;20757;-78
2023/08/20 01:09:21;;;;;;;1116.53;999.90;;;;;;;21.83;87.45;100335.88;5037310;28;20098;-78
2023/08/20 01:11:52;;;;;;;1129.90;999.90;;;;;;;21.79;87.67;100332.91;5037328;28;20033;-78
2023/08/20 01:14:17;;;;;;;1099.45;997.90;;;;;;;21.79;87.51;100330.97;5036963;28;20044;-78
2023/08/20 01:16:43;;;;;;;1078.28;984.88;;;;;;;21.78;87.78;100340.41;5037397;28;20033;-77
2023/08/20 01:19:16;;;;;;;1088.68;990.58;;;;;;;21.78;87.63;100339.63;5036978;28;20175;-78
2023/08/20 01:22:05;;;;;;;1083.68;987.03;;;;;;;21.79;87.51;100332.91;5036756;28;20059;-78
2023/08/20 01:24:51;;;;;;;1096.50;993.40;;;;;;;21.79;87.43;100336.50;5035733;28;20045;-79
2023/08/20 01:27:48;;;;;;;1104.90;999.05;;;;;;;21.81;87.49;100331.47;5036446;28;20128;-77
2023/08/20 01:30:15;;;;;;;1130.43;999.90;;;;;;;21.79;87.79;100325.41;5037093;28;20028;-77
2023/08/20 01:32:41;;;;;;;1149.20;999.90;;;;;;;21.79;87.92;100336.50;5036136;28;20437;-78
2023/08/20 01:35:12;;;;;;;1134.50;999.90;;;;;;;21.81;87.95;100338.97;5036194;28;20041;-79
2023/08/20 01:37:37;;;;;;;1105.47;999.70;;;;;;;21.81;87.86;100339.78;5038313;28;20037;-77
2023/08/20 01:40:03;;;;;;;1088.95;990.38;;;;;;;21.81;87.67;100338.97;5035447;28;20444;-78
2023/08/20 01:42:29;;;;;;;1144.97;999.90;;;;;;;21.81;88.11;100337.00;5036367;28;20040;-78
2023/08/20 01:44:54;;;;;;;1196.63;999.90;;;;;;;21.79;87.89;100330.16;5036805;28;20402;-78
2023/08/20 01:47:19;;;;;;;1130.67;999.90;;;;;;;21.81;88.05;100333.41;5036685;28;20120;-77
2023/08/20 01:49:45;;;;;;;1134.90;999.90;;;;;;;21.76;87.81;100342.72;5036882;28;20262;-78
2023/08/20 01:52:10;;;;;;;1155.32;999.90;;;;;;;21.74;88.11;100349.75;5036185;28;20347;-77
2023/08/20 01:54:36;;;;;;;1129.10;999.90;;;;;;;21.62;88.66;100347.63;5036766;28;20045;-78
2023/08/20 01:57:01;;;;;;;1142.80;999.90;;;;;;;21.61;88.87;100357.91;5035950;28;20278;-78
2023/08/20 01:59:26;;;;;;;1137.77;999.90;;;;;;;21.68;88.93;100358.22;5036517;28;20045;-78
2023/08/20 02:01:51;;;;;;;1148.85;999.90;;;;;;;21.70;88.87;100352.38;5035708;28;20271;-78
2023/08/20 02:04:17;;;;;;;1118.57;999.90;;;;;;;21.70;88.52;100361.47;5034913;28;20719;-78
2023/08/20 02:06:42;;;;;;;1149.33;999.90;;;;;;;21.70;88.44;100346.81;5033191;28;20258;-78
2023/08/20 02:09:07;;;;;;;1091.67;994.10;;;;;;;21.70;88.83;100344.03;5036410;28;20274;-77
2023/08/20 02:11:35;;;;;;;1115.37;999.90;;;;;;;21.70;88.17;100347.59;5035899;28;20083;-78
2023/08/20 02:14:01;;;;;;;1162.53;999.90;;;;;;;21.65;88.33;100346.97;5034805;28;20357;-78
2023/08/20 02:16:26;;;;;;;1089.63;989.42;;;;;;;21.64;88.04;100340.59;5036006;28;20214;-78
2023/08/20 02:18:52;;;;;;;1156.50;999.90;;;;;;;21.65;88.20;100341.41;5035111;28;20546;-77
2023/08/20 02:21:17;;;;;;;1113.73;999.53;;;;;;;21.65;87.89;100346.97;5035450;28;20260;-77
2023/08/20 02:23:42;;;;;;;1125.67;999.90;;;;;;;21.64;87.77;100348.91;5035667;28;20275;-78
2023/08/20 02:26:08;;;;;;;1138.10;999.90;;;;;;;21.63;87.55;100352.03;5035340;28;20275;-78
2023/08/20 02:28:33;;;;;;;1141.53;999.90;;;;;;;21.61;87.75;100348.75;5036113;28;20044;-79
2023/08/20 02:30:59;;;;;;;1125.03;999.90;;;;;;;21.51;87.95;100353.50;5035591;28;20032;-79
2023/08/20 02:33:25;;;;;;;1117.95;999.90;;;;;;;21.50;88.18;100362.16;5034499;28;20526;-78
2023/08/20 02:35:50;;;;;;;1107.10;998.60;;;;;;;21.50;87.97;100364.91;5034292;28;20098;-78
2023/08/20 02:38:15;;;;;;;1091.23;992.30;;;;;;;21.50;87.50;100367.69;5036227;28;20255;-77
2023/08/20 02:40:41;;;;;;;1106.47;999.90;;;;;;;21.50;87.62;100373.25;5036102;28;20332;-77
2023/08/20 02:43:07;;;;;;;1103.45;999.90;;;;;;;21.46;87.33;100368.31;5036475;28;20324;-77
2023/08/20 02:45:32;;;;;;;1119.37;999.90;;;;;;;21.43;87.43;100376.47;5035224;28;20396;-77
2023/08/20 02:47:57;;;;;;;1113.53;999.90;;;;;;;21.41;87.22;100381.53;5036208;28;20348;-78
2023/08/20 02:50:23;;;;;;;1091.03;991.58;;;;;;;21.34;87.71;100393.91;5035438;28;20270;-79
2023/08/20 02:52:48;;;;;;;1104.80;999.43;;;;;;;21.33;87.68;100392.31;5036111;28;20048;-78
2023/08/20 02:55:13;;;;;;;1103.93;997.75;;;;;;;21.33;87.60;100391.47;5035994;28;20259;-78
2023/08/20 02:57:38;;;;;;;1155.90;999.90;;;;;;;21.34;87.71;100398.63;5034256;28;20036;-78
2023/08/20 03:00:04;;;;;;;1055.30;965.33;;;;;;;21.37;87.63;100402.72;5035544;28;20037;-78
2023/08/20 03:02:30;;;;;;;1141.28;999.90;;;;;;;21.36;87.86;100396.34;5035255;28;20446;-77
2023/08/20 03:04:55;;;;;;;1129.87;999.90;;;;;;;21.36;88.17;100390.03;5034980;28;20033;-79
2023/08/20 03:07:22;;;;;;;1135.18;999.90;;;;;;;21.42;87.98;100394.25;5034640;28;20040;-78
2023/08/20 03:09:47;;;;;;;1133.82;999.90;;;;;;;21.44;87.98;100392.78;5036119;28;20025;-78
2023/08/20 03:12:12;;;;;;;1145.93;999.90;;;;;;;21.45;88.20;100385.28;5034182;28;20064;-76
2023/08/20 03:14:38;;;;;;;1104.90;999.83;;;;;;;21.44;88.04;100380.88;5032810;28;20446;-75
2023/08/20 03:17:03;;;;;;;1125.03;999.90;;;;;;;21.45;87.69;100383.34;5033105;28;20120;-74
2023/08/20 03:19:33;;;;;;;1115.63;999.90;;;;;;;21.39;87.42;100386.59;5033530;28;20259;-74
2023/08/20 03:21:59;;;;;;;1145.63;999.90;;;;;;;21.19;88.00;100389.66;5033212;28;20118;-78
2023/08/20 03:24:24;;;;;;;1126.37;999.90;;;;;;;21.16;88.81;100395.84;5035893;28;20079;-78
2023/08/20 03:26:49;;;;;;;1132.97;999.90;;;;;;;21.13;89.36;100381.81;5036919;28;20029;-78
2023/08/20 03:29:14;;;;;;;1154.13;999.90;;;;;;;21.22;89.01;100380.69;5040887;28;20044;-78
2023/08/20 03:31:40;;;;;;;1150.63;999.90;;;;;;;21.25;88.59;100383.94;5040112;28;20313;-78
2023/08/20 03:34:05;;;;;;;1073.13;978.50;;;;;;;21.26;88.63;100380.03;5038900;28;20323;-78
2023/08/20 03:36:30;;;;;;;1096.93;996.22;;;;;;;21.27;88.45;100388.03;5038921;28;20304;-79
2023/08/20 03:38:55;;;;;;;1103.53;999.00;;;;;;;21.27;88.30;100385.28;5039289;28;20041;-78
2023/08/20 03:41:21;;;;;;;1117.20;999.90;;;;;;;21.30;88.05;100392.09;5038359;28;20029;-78
2023/08/20 03:43:46;;;;;;;1094.97;993.07;;;;;;;21.26;87.70;100391.94;5036870;28;20302;-77
2023/08/20 03:46:11;;;;;;;1122.83;999.90;;;;;;;21.24;87.91;100391.44;5037976;28;20029;-77
2023/08/20 03:48:36;;;;;;;1103.93;996.53;;;;;;;21.23;87.96;100400.91;5038478;28;20265;-78
2023/08/20 03:51:02;;;;;;;1100.93;997.90;;;;;;;21.22;87.87;100402.03;5037851;28;20300;-79
2023/08/20 03:53:27;;;;;;;1114.97;999.90;;;;;;;21.21;87.98;100397.66;5037561;28;20043;-78
2023/08/20 03:55:52;;;;;;;1093.47;993.60;;;;;;;21.23;87.83;100398.16;5038202;28;20040;-78
2023/08/20 03:58:17;;;;;;;1106.83;998.83;;;;;;;21.21;87.82;100400.41;5038615;28;20308;-78
2023/08/20 04:00:43;;;;;;;1083.85;984.35;;;;;;;21.22;88.07;100402.03;5038978;28;20255;-77
2023/08/20 04:03:09;;;;;;;1130.65;999.90;;;;;;;21.21;87.93;100403.19;5038442;28;20033;-79
2023/08/20 04:05:38;;;;;;;1120.50;999.90;;;;;;;21.19;87.91;100411.00;5037507;28;20068;-78
2023/08/20 04:08:04;;;;;;;1116.47;999.90;;;;;;;21.18;87.68;100409.38;5036795;28;20064;-78
2023/08/20 04:10:29;;;;;;;1102.90;998.53;;;;;;;21.19;87.94;100403.53;5036135;28;20155;-77
2023/08/20 04:12:54;;;;;;;1106.80;998.25;;;;;;;21.19;87.88;100413.78;5037319;28;20112;-78
2023/08/20 04:15:20;;;;;;;1113.17;999.90;;;;;;;21.20;87.66;100415.41;5037174;28;20505;-79
2023/08/20 04:17:45;;;;;;;1122.80;999.90;;;;;;;21.20;87.76;100415.41;5037628;28;20250;-77
2023/08/20 04:20:11;;;;;;;1150.10;999.90;;;;;;;21.18;87.62;100415.72;5039002;28;20845;-78
2023/08/20 04:22:37;;;;;;;1072.35;975.60;;;;;;;21.15;87.43;100410.03;5037566;28;20034;-78
2023/08/20 04:25:02;;;;;;;1098.25;994.72;;;;;;;21.11;87.32;100413.41;5038013;28;20108;-79
2023/08/20 04:27:27;;;;;;;1121.68;999.90;;;;;;;21.11;87.26;100412.63;5038637;28;20035;-79
2023/08/20 04:29:53;;;;;;;1099.95;998.88;;;;;;;21.09;87.21;100409.34;5037374;28;20592;-78
2023/08/20 04:32:18;;;;;;;1092.93;994.17;;;;;;;21.06;86.90;100416.34;5038206;28;20047;-77
2023/08/20 04:34:43;;;;;;;1078.47;983.03;;;;;;;21.03;87.40;100422.53;5038831;28;20324;-78
2023/08/20 04:37:08;;;;;;;1106.70;999.90;;;;;;;21.07;87.61;100409.66;5038267;28;20289;-78
2023/08/20 04:39:34;;;;;;;1074.63;978.40;;;;;;;21.05;87.51;100411.94;5039352;28;20777;-78
2023/08/20 04:42:00;;;;;;;1111.60;999.90;;;;;;;21.06;87.46;100419.13;5037599;28;20251;-78
2023/08/20 04:44:25;;;;;;;1097.55;994.83;;;;;;;21.07;87.74;100423.50;5036952;28;20265;-79
2023/08/20 04:46:50;;;;;;;1096.82;994.83;;;;;;;21.09;87.92;100435.09;5037959;28;20033;-78
2023/08/20 04:49:16;;;;;;;1084.82;987.35;;;;;;;21.09;88.14;100432.31;5038386;28;20044;-77
2023/08/20 04:51:41;;;;;;;1093.28;992.30;;;;;;;21.10;87.88;100430.38;5037411;28;20032;-77
2023/08/20 04:54:06;;;;;;;1086.13;985.83;;;;;;;21.13;87.93;100431.69;5036162;28;20687;-78
2023/08/20 04:56:31;;;;;;;1041.10;950.33;;;;;;;21.16;87.89;100439.34;5036441;28;20287;-77
2023/08/20 04:58:57;;;;;;;1048.03;950.75;;;;;;;21.16;87.92;100440.19;5037206;28;20270;-78
2023/08/20 05:01:22;;;;;;;1098.37;995.87;;;;;;;21.17;87.98;100447.38;5038932;28;20037;-78
2023/08/20 05:03:47;;;;;;;1021.63;926.03;;;;;;;21.10;88.35;100436.75;5037482;28;20254;-78
2023/08/20 05:06:12;;;;;;;1100.23;994.40;;;;;;;21.10;88.64;100442.28;5037691;28;20271;-77
2023/08/20 05:08:38;;;;;;;1052.37;953.40;;;;;;;21.16;88.69;100444.91;5037957;28;20283;-78
2023/08/20 05:11:03;;;;;;;1050.73;952.93;;;;;;;21.21;88.64;100440.03;5036331;28;20255;-78
2023/08/20 05:13:28;;;;;;;1095.28;991.15;;;;;;;21.23;88.63;100434.97;5037229;28;20273;-78
2023/08/20 05:15:53;;;;;;;1042.13;942.07;;;;;;;21.25;88.56;100445.78;5037702;28;20112;-78
2023/08/20 05:18:19;;;;;;;1066.33;966.37;;;;;;;21.26;88.76;100436.28;5037659;28;20251;-78
2023/08/20 05:20:44;;;;;;;1071.43;972.50;;;;;;;21.25;88.98;100445.78;5037469;28;20290;-78
2023/08/20 05:23:09;;;;;;;1090.27;989.30;;;;;;;21.26;89.05;100443.78;5020150;28;20293;-78
2023/08/20 05:25:34;;;;;;;1092.47;989.50;;;;;;;21.23;88.94;100443.28;5035627;28;20090;-77
2023/08/20 05:28:01;;;;;;;1036.80;943.57;;;;;;;21.26;88.81;100452.94;5037391;28;20076;-78
2023/08/20 05:30:26;;;;;;;1092.50;985.97;;;;;;;21.29;89.04;100441.22;5038182;28;20250;-77
2023/08/20 05:32:51;;;;;;;1116.30;999.53;;;;;;;21.32;89.30;100437.78;5019868;28;20028;-77
2023/08/20 05:35:17;;;;;;;1119.63;999.90;;;;;;;21.33;89.02;100447.75;5037071;28;20042;-78
2023/08/20 05:37:42;;;;;;;1055.50;957.73;;;;;;;21.33;89.13;100439.44;5036697;28;20029;-78
2023/08/20 05:40:08;;;;;;;1051.82;957.47;;;;;;;21.34;89.25;100438.28;5019158;28;20263;-77
2023/08/20 05:42:34;;;;;;;1055.65;959.33;;;;;;;21.37;89.14;100441.56;5035723;28;20029;-75
2023/08/20 05:44:59;;;;;;;1112.40;997.92;;;;;;;21.38;89.46;100443.19;5034481;28;20415;-75
2023/08/20 05:47:24;;;;;;;1106.60;998.43;;;;;;;21.41;89.17;100448.09;5035099;28;20119;-74
2023/08/20 05:49:50;;;;;;;1057.93;959.80;;;;;;;21.44;89.11;100450.19;5035572;28;20270;-76
2023/08/20 05:52:15;;;;;;;1066.00;969.17;;;;;;;21.49;88.99;100460.34;5035618;28;20029;-75
2023/08/20 05:54:40;;;;;;;1065.10;963.07;;;;;;;21.47;89.10;100444.03;5016774;28;20269;-76
2023/08/20 05:57:05;;;;;;;1022.33;928.43;;;;;;;21.54;88.88;100446.34;5034743;28;20258;-75
2023/08/20 05:59:31;;;;;;;1066.78;970.40;;;;;;;21.53;88.81;100451.06;5034541;28;20292;-75
2023/08/20 06:01:56;;;;;;;1147.23;999.90;;;;;;;21.52;89.27;100449.41;5035405;28;20132;-75
2023/08/20 06:04:22;;;;;;;1135.23;999.90;;;;;;;21.55;89.66;100448.78;5034420;28;20029;-75
2023/08/20 06:06:47;;;;;;;1061.32;962.25;;;;;;;21.55;89.37;100443.22;5034826;28;20773;-75
2023/08/20 06:09:13;;;;;;;1119.77;999.90;;;;;;;21.57;89.26;100448.44;5034941;28;20951;-75
2023/08/20 06:11:38;;;;;;;1072.90;968.55;;;;;;;21.53;89.37;100445.50;5033490;28;20281;-75
2023/08/20 06:14:03;;;;;;;1133.13;999.90;;;;;;;21.55;89.63;100446.00;5032470;28;20102;-75
2023/08/20 06:16:29;;;;;;;1091.10;981.60;;;;;;;21.60;89.33;100444.22;5032890;28;20469;-76
2023/08/20 06:18:54;;;;;;;1091.47;989.13;;;;;;;21.61;89.12;100445.84;5032080;28;20079;-76
2023/08/20 06:21:19;;;;;;;1040.95;946.13;;;;;;;21.63;89.11;100452.72;5032848;28;20255;-77
2023/08/20 06:23:44;;;;;;;1079.70;980.22;;;;;;;21.56;90.11;100455.94;5015094;28;20080;-76
2023/08/20 06:26:10;;;;;;;1094.77;992.07;;;;;;;21.62;89.97;100455.81;5033673;28;20048;-74
2023/08/20 06:28:35;;;;;;;1148.27;999.90;;;;;;;21.65;89.58;100453.19;5033121;28;20890;-75
2023/08/20 06:31:00;;;;;;;1135.88;999.90;;;;;;;21.68;89.80;100457.28;5034089;28;20266;-75
2023/08/20 06:33:26;;;;;;;1033.40;939.65;;;;;;;21.76;89.61;100448.16;5035198;28;20708;-75
2023/08/20 06:35:51;;;;;;;1069.87;971.50;;;;;;;21.74;89.77;100444.06;5034743;28;20396;-75
2023/08/20 06:38:16;;;;;;;1077.13;979.47;;;;;;;21.77;89.47;100447.00;5034336;28;20259;-75
2023/08/20 06:40:44;;;;;;;1056.63;960.60;;;;;;;21.81;89.56;100450.78;5032986;28;20267;-76
2023/08/20 06:43:10;;;;;;;1098.40;993.30;;;;;;;21.85;89.46;100455.69;5033470;28;20037;-79
2023/08/20 06:45:35;;;;;;;1053.30;959.50;;;;;;;21.88;89.23;100455.06;5032521;28;20509;-79
2023/08/20 06:48:00;;;;;;;1116.17;999.90;;;;;;;21.88;89.34;100455.06;5033080;28;20029;-77
2023/08/20 06:50:25;;;;;;;1088.87;987.80;;;;;;;21.84;89.88;100460.44;5033951;28;20266;-80
2023/08/20 06:52:51;;;;;;;1091.65;993.22;;;;;;;21.90;89.78;100452.78;5033503;28;20293;-77
2023/08/20 06:55:16;;;;;;;1097.38;999.75;;;;;;;21.92;89.93;100461.59;5033527;28;20124;-76
2023/08/20 06:57:41;;;;;;;1020.43;933.77;;;;;;;21.95;89.63;100466.47;5016472;28;20045;-76
2023/08/20 07:00:07;;;;;;;1091.65;988.30;;;;;;;21.97;89.71;100463.41;5033102;28;20250;-75
2023/08/20 07:02:32;;;;;;;1058.57;964.45;;;;;;;21.99;89.63;100455.53;5034690;28;20041;-76
2023/08/20 07:04:57;;;;;;;1062.80;965.77;;;;;;;22.03;90.01;100474.00;5033675;28;20061;-76
2023/08/20 07:07:23;;;;;;;1105.87;998.70;;;;;;;22.06;89.71;100468.94;5034664;28;20280;-74
2023/08/20 07:09:48;;;;;;;1059.32;958.20;;;;;;;22.18;90.02;100463.53;5033770;28;20262;-75
2023/08/20 07:12:14;;;;;;;1088.90;987.50;;;;;;;22.23;90.11;100465.34;5033667;28;20135;-75
2023/08/20 07:14:39;;;;;;;1073.95;971.22;;;;;;;22.27;89.39;100461.56;5015389;28;21499;-75
2023/08/20 07:17:05;;;;;;;1069.93;969.75;;;;;;;22.24;89.34;100456.69;5032364;28;20080;-75
2023/08/20 07:19:30;;;;;;;1123.20;999.90;;;;;;;22.27;89.10;100455.22;5033890;28;20037;-76
2023/08/20 07:21:55;;;;;;;1104.60;996.92;;;;;;;22.35;89.73;100456.34;5034077;28;20049;-76
2023/08/20 07:24:29;;;;;;;1108.30;999.13;;;;;;;22.32;88.88;100468.09;5033157;28;20037;-76
2023/08/20 07:26:59;;;;;;;1093.68;992.22;;;;;;;22.31;89.19;100458.16;5033742;28;20282;-76
2023/08/20 07:29:25;;;;;;;1098.55;992.80;;;;;;;22.33;89.25;100458.63;5034172;28;20048;-75
2023/08/20 07:31:50;;;;;;;1091.40;989.20;;;;;;;22.39;88.69;100457.31;5035039;28;20103;-75
2023/08/20 07:34:15;;;;;;;1114.55;999.90;;;;;;;22.43;88.64;100460.25;5032297;28;20599;-71
2023/08/20 07:36:41;;;;;;;1113.57;999.90;;;;;;;22.43;88.13;100458.31;5032817;28;20045;-73
2023/08/20 07:39:06;;;;;;;1065.30;970.22;;;;;;;22.50;88.27;100464.16;5033066;28;20041;-72
2023/08/20 07:41:31;;;;;;;1052.20;955.42;;;;;;;22.59;88.67;100460.56;5031947;28;20165;-72
2023/08/20 07:43:57;;;;;;;1070.13;972.40;;;;;;;22.59;88.52;100455.81;5032257;28;20682;-73
2023/08/20 07:46:22;;;;;;;1132.03;999.90;;;;;;;22.57;89.37;100454.50;5032186;28;20263;-73
2023/08/20 07:48:47;;;;;;;982.27;900.97;;;;;;;22.58;88.63;100461.69;5035736;28;20277;-75
2023/08/20 07:51:12;;;;;;;819.10;756.58;;;;;;;22.59;88.75;100457.78;5035987;28;20293;-82
2023/08/20 07:53:38;;;;;;;1111.60;999.75;;;;;;;22.66;88.42;100452.53;5039444;28;20037;-84
2023/08/20 07:56:04;;;;;;;1109.57;999.80;;;;;;;22.66;88.08;100457.31;5041713;28;20049;-83
2023/08/20 07:58:29;;;;;;;1053.07;960.35;;;;;;;22.69;87.89;100463.00;5042520;28;20273;-85
2023/08/20 08:00:55;;;;;;;1094.57;990.15;;;;;;;22.69;88.70;100460.25;5041592;28;20029;-77
2023/08/20 08:03:20;;;;;;;904.65;830.03;;;;;;;22.72;87.99;100467.91;5037535;28;20662;-78
2023/08/20 08:05:48;;;;;;;1115.00;999.90;;;;;;;22.76;88.50;100472.81;5035935;28;20115;-74
2023/08/20 08:08:13;;;;;;;1035.93;940.85;;;;;;;22.75;88.53;100469.22;5033866;28;20778;-75
2023/08/20 08:10:38;;;;;;;1036.82;943.25;;;;;;;22.77;88.41;100471.66;5033929;28;20024;-75
2023/08/20 08:13:04;;;;;;;813.50;752.33;;;;;;;22.82;88.64;100479.81;5037921;28;20586;-75
2023/08/20 08:15:29;;;;;;;867.77;799.33;;;;;;;22.80;88.13;100476.56;5037510;28;20259;-74
2023/08/20 08:17:54;;;;;;;1077.32;976.03;;;;;;;22.85;88.23;100479.16;5035136;28;21434;-76
2023/08/20 08:20:20;;;;;;;1057.70;961.40;;;;;;;22.89;88.12;100488.47;5037598;28;21123;-74
2023/08/20 08:22:45;;;;;;;835.13;768.85;;;;;;;22.92;87.96;100484.22;5038159;28;20316;-74
2023/08/20 08:25:10;;;;;;;849.20;786.10;;;;;;;22.97;88.09;100489.56;5038358;28;20041;-75
2023/08/20 08:27:36;;;;;;;1098.83;995.63;;;;;;;23.03;87.95;100484.63;5039821;28;20659;-76
2023/08/20 08:30:01;;;;;;;906.25;834.50;;;;;;;23.00;87.33;100483.38;5039409;28;20251;-77
2023/08/20 08:32:26;;;;;;;991.22;907.33;;;;;;;23.04;87.60;100469.59;5038378;28;20690;-76
2023/08/20 08:34:52;;;;;;;924.77;846.37;;;;;;;23.08;87.04;100476.13;5037262;28;20033;-75
2023/08/20 08:37:17;;;;;;;1065.40;968.33;;;;;;;23.12;86.73;100481.84;5037771;28;20262;-75
2023/08/20 08:39:43;;;;;;;963.95;877.53;;;;;;;23.15;86.06;100481.16;5039217;28;20063;-76
2023/08/20 08:42:11;;;;;;;999.00;910.47;;;;;;;23.16;85.35;100472.50;5037379;28;20033;-75
2023/08/20 08:44:36;;;;;;;995.70;905.58;;;;;;;23.19;85.04;100474.59;5038092;28;20823;-76
2023/08/20 08:47:03;;;;;;;863.75;791.63;;;;;;;23.25;84.47;100474.44;5037149;28;20094;-77
2023/08/20 08:49:31;;;;;;;1015.60;923.33;;;;;;;23.38;82.35;100484.50;5037899;28;20064;-74
2023/08/20 08:51:57;;;;;;;1055.32;955.83;;;;;;;23.41;82.21;100486.59;5037815;28;20087;-75
2023/08/20 08:54:23;;;;;;;1078.88;983.22;;;;;;;23.47;82.22;100487.28;5038544;28;20119;-75
2023/08/20 08:56:49;;;;;;;1118.60;999.90;;;;;;;23.52;81.32;100489.03;5038763;28;20132;-78
2023/08/20 08:59:14;;;;;;;1095.28;995.63;;;;;;;23.56;81.13;100484.44;5037306;28;20026;-76
2023/08/20 09:01:40;;;;;;;964.17;881.13;;;;;;;23.60;80.97;100479.81;5038793;28;20474;-85
2023/08/20 09:04:06;;;;;;;1016.58;919.03;;;;;;;23.66;79.46;100486.00;5041866;28;20083;-85
2023/08/20 09:06:45;;;;;;;1015.00;916.88;;;;;;;23.74;78.60;100490.69;5037189;28;20124;-84
2023/08/20 09:09:10;;;;;;;1041.65;943.08;;;;;;;23.80;80.04;100485.75;5021381;28;20034;-85
2023/08/20 09:11:36;;;;;;;1138.27;999.90;;;;;;;23.88;79.95;100478.50;5040953;28;20028;-86
2023/08/20 09:14:01;;;;;;;1116.55;998.88;;;;;;;23.93;78.99;100480.25;5040436;28;20666;-86
2023/08/20 09:16:30;;;;;;;1102.03;967.05;;;;;;;23.96;78.21;100474.03;5043407;28;20031;-87
2023/08/20 09:18:58;;;;;;;1159.05;999.90;;;;;;;23.97;77.79;100475.63;5044294;28;20112;-86
2023/08/20 09:21:29;;;;;;;1184.25;999.90;;;;;;;24.00;77.61;100474.97;5043268;28;20031;-85
2023/08/20 09:23:55;;;;;;;1077.55;962.38;;;;;;;24.04;77.76;100475.94;5040166;28;20033;-86
2023/08/20 09:26:20;;;;;;;900.33;826.60;;;;;;;24.06;77.36;100473.63;5043229;28;20118;-84
2023/08/20 09:28:46;;;;;;;1211.60;999.90;;;;;;;24.08;76.14;100479.63;5042600;28;20475;-85
2023/08/20 09:31:12;;;;;;;1312.00;999.90;;;;;;;24.13;76.17;100479.44;5040274;28;20254;-85
2023/08/20 09:33:51;;;;;;;856.72;786.50;;;;;;;24.24;76.42;100476.28;5040686;28;20040;-84
2023/08/20 09:36:17;;;;;;;910.28;832.38;;;;;;;24.24;76.42;100479.06;5040076;28;20041;-86
2023/08/20 09:38:42;;;;;;;1368.85;999.90;;;;;;;24.27;75.53;100478.38;5038134;28;20068;-85
2023/08/20 09:41:08;;;;;;;1223.63;999.90;;;;;;;24.31;75.57;100482.09;5037927;28;20503;-82
2023/08/20 09:43:37;;;;;;;1401.72;999.90;;;;;;;24.38;75.80;100481.56;5040705;28;20274;-84
2023/08/20 09:46:04;;;;;;;1497.15;999.90;;;;;;;24.45;75.56;100483.81;5040481;28;20459;-84
2023/08/20 09:48:35;;;;;;;1110.22;991.15;;;;;;;24.55;74.55;100482.56;5038548;28;20076;-82
2023/08/20 09:51:06;;;;;;;1159.93;966.00;;;;;;;24.63;73.72;100487.22;5036080;28;20045;-81
2023/08/20 09:53:42;;;;;;;991.83;893.10;;;;;;;24.71;74.04;100494.66;5033923;28;20072;-81
2023/08/20 09:56:20;;;;;;;909.38;830.03;;;;;;;24.83;73.71;100488.31;5033765;28;20950;-80
2023/08/20 09:58:47;;;;;;;1035.20;938.15;;;;;;;24.91;72.97;100494.13;5033601;28;20044;-81
2023/08/20 10:01:13;;;;;;;1066.75;969.25;;;;;;;24.96;72.34;100502.28;5033440;28;20094;-81
2023/08/20 10:03:38;;;;;;;1393.77;999.90;;;;;;;24.95;72.18;100492.28;5033582;28;20384;-80
2023/08/20 10:06:04;;;;;;;944.88;861.75;;;;;;;24.88;72.65;100494.81;5033426;28;20771;-81
2023/08/20 10:08:30;;;;;;;920.05;842.92;;;;;;;24.84;72.01;100500.25;5033455;28;20063;-81
2023/08/20 10:10:55;;;;;;;1143.05;999.90;;;;;;;24.77;72.64;100489.69;5034087;28;20037;-74
2023/08/20 10:13:21;;;;;;;957.47;873.78;;;;;;;24.72;71.69;100489.91;5014873;28;20049;-75
2023/08/20 10:15:46;;;;;;;1080.47;972.47;;;;;;;24.72;72.20;100495.47;5033044;28;20311;-75
2023/08/20 10:18:12;;;;;;;1023.17;932.97;;;;;;;24.80;72.69;100497.34;5032353;28;20068;-73
2023/08/20 10:20:41;;;;;;;1588.88;999.90;;;;;;;24.87;70.81;100494.00;5032856;28;20048;-73
2023/08/20 10:23:07;;;;;;;1503.13;999.90;;;;;;;24.95;71.17;100498.72;5033493;28;20132;-81
2023/08/20 10:25:41;;;;;;;1812.75;999.90;;;;;;;25.01;70.17;100499.28;5032886;28;20087;-80
2023/08/20 10:28:20;;;;;;;1821.55;999.90;;;;;;;25.10;69.48;100498.38;5033400;28;20051;-81
2023/08/20 10:31:08;;;;;;;1760.80;999.90;;;;;;;25.23;69.85;100499.19;5033600;28;20040;-80
2023/08/20 10:33:35;;;;;;;1999.90;999.90;;;;;;;25.31;69.40;100492.69;5032036;28;20049;-80
2023/08/20 10:36:09;;;;;;;1567.40;999.90;;;;;;;25.38;69.54;100497.69;5032597;28;20068;-81
2023/08/20 10:38:38;;;;;;;1999.90;999.90;;;;;;;25.49;69.09;100495.22;5015596;28;20037;-80
2023/08/20 10:41:08;;;;;;;1982.38;999.90;;;;;;;25.57;68.91;100491.50;5032732;28;20039;-81
2023/08/20 10:43:37;;;;;;;1223.80;963.65;;;;;;;25.65;68.53;100486.97;5032549;28;20152;-81